createdAt,value
2022-10-28T00:04:04.190Z,19.6
2022-10-28T00:14:04.648Z,19.6
2022-10-28T00:24:04.736Z,19.7
2022-10-28T00:34:05.707Z,19.9
2022-10-28T00:44:05.800Z,19.9
2022-10-28T00:54:06.838Z,20.1
2022-10-28T01:04:07.820Z,20.1
2022-10-28T01:14:08.326Z,20.2
2022-10-28T01:24:09.061Z,20.2
2022-10-28T01:34:10.027Z,20.2
2022-10-28T01:44:10.691Z,20.3
2022-10-28T01:54:10.931Z,20.3
2022-10-28T02:04:11.527Z,20.3
2022-10-28T02:14:12.196Z,20.3
2022-10-28T02:24:12.521Z,20.3
2022-10-28T02:44:13.735Z,20
2022-10-28T02:54:13.917Z,20
2022-10-28T03:04:14.303Z,19.9
2022-10-28T03:14:15.479Z,19.7
2022-10-28T03:24:15.555Z,19.7
2022-10-28T03:34:16.047Z,19.5
2022-10-28T03:44:16.106Z,19.4
2022-10-28T03:54:16.251Z,19.3
2022-10-28T04:04:17.056Z,19.2
2022-10-28T04:14:17.551Z,19.1
2022-10-28T04:24:18.072Z,18.9
2022-10-28T04:34:18.842Z,18.9
2022-10-28T04:54:20.408Z,18.8
2022-10-28T05:04:20.510Z,18.9
2022-10-28T05:14:21.424Z,19.2
2022-10-28T05:24:21.807Z,19.1
2022-10-28T05:34:21.897Z,19.1
2022-10-28T05:44:22.649Z,19.1
2022-10-28T05:54:23.512Z,19
2022-10-28T06:04:24.020Z,18.9
2022-10-28T06:14:23.447Z,18.9
2022-10-28T06:24:24.045Z,18.8
2022-10-28T06:34:25.036Z,18.7
2022-10-28T06:44:25.612Z,18.7
2022-10-28T06:54:27.798Z,18.7
2022-10-28T07:04:27.932Z,18.6
2022-10-28T07:14:28.866Z,18.6
2022-10-28T07:24:29.596Z,18.8
2022-10-28T07:44:30.606Z,19.1
2022-10-28T07:54:31.226Z,19.4
2022-10-28T08:04:32.165Z,19.6
2022-10-28T08:24:33.290Z,19.7
2022-10-28T08:44:34.355Z,19.9
2022-10-28T08:54:34.751Z,20.1
2022-10-28T09:04:34.826Z,20.4
2022-10-28T09:14:35.632Z,20.7
2022-10-28T09:24:35.875Z,21
2022-10-28T09:34:36.439Z,21.2
2022-10-28T09:44:37.458Z,21.6
2022-10-28T09:54:37.667Z,22
2022-10-28T10:04:38.041Z,22
2022-10-28T10:14:38.402Z,22.2
2022-10-28T10:24:39.305Z,22.3
2022-10-28T10:34:40.158Z,22.7
2022-10-28T10:44:40.986Z,23
2022-10-28T10:54:41.409Z,23.2
2022-10-28T11:04:41.714Z,23.4
2022-10-28T11:14:42.200Z,23.4
2022-10-28T11:24:42.406Z,23.5
2022-10-28T11:34:42.580Z,23.5
2022-10-28T11:44:43.561Z,23.8
2022-10-28T11:54:43.652Z,24.1
2022-10-28T12:04:43.771Z,24.2
2022-10-28T12:14:44.057Z,24.5
2022-10-28T12:24:44.499Z,24.8
2022-10-28T12:34:45.367Z,25.2
2022-10-28T12:44:46.794Z,25.3
2022-10-28T12:54:49.840Z,25.4
2022-10-28T13:04:47.480Z,25.7
2022-10-28T13:14:48.180Z,25.5
2022-10-28T13:24:49.179Z,25.2
2022-10-28T13:34:50.160Z,24.9
2022-10-28T13:44:50.865Z,24.8
2022-10-28T13:54:51.498Z,24.7
2022-10-28T14:04:52.289Z,24.6
2022-10-28T14:14:52.971Z,24.6
2022-10-28T14:34:54.451Z,24.2
2022-10-28T14:44:54.748Z,23.9
2022-10-28T14:54:55.086Z,23.7
2022-10-28T15:04:55.815Z,23.6
2022-10-28T15:14:56.577Z,23.4
2022-10-28T15:24:57.588Z,23.2
2022-10-28T15:34:58.069Z,23
2022-10-28T15:54:59.623Z,22.7
2022-10-28T16:05:00.239Z,22.4
2022-10-28T16:15:00.790Z,22.1
2022-10-28T16:25:00.853Z,21.8
2022-10-28T16:35:00.921Z,21.8
2022-10-28T16:45:01.955Z,21.6
2022-10-28T16:55:02.746Z,21.4
2022-10-28T17:05:02.876Z,21.2
2022-10-28T17:15:03.372Z,21.1
2022-10-28T17:25:03.971Z,20.9
2022-10-28T17:35:04.854Z,20.8
2022-10-28T17:45:05.763Z,20.6
2022-10-28T17:55:05.846Z,20.4
2022-10-28T18:05:06.409Z,20.3
2022-10-28T18:15:06.848Z,20.1
2022-10-28T18:25:06.967Z,20
2022-10-28T18:35:07.393Z,19.8
2022-10-28T18:45:08.367Z,19.6
2022-10-28T18:55:08.541Z,19.6
2022-10-28T19:05:08.761Z,19.5
2022-10-28T19:15:09.412Z,19.5
2022-10-28T19:25:10.316Z,19.3
2022-10-28T19:35:10.438Z,19.3
2022-10-28T19:45:10.645Z,19.1
2022-10-28T19:55:14.611Z,19.1
2022-10-28T20:05:10.942Z,18.9
2022-10-28T20:15:11.740Z,18.9
2022-10-28T20:25:11.868Z,18.9
2022-10-28T20:35:12.827Z,18.8
2022-10-28T20:45:13.731Z,18.9
2022-10-28T20:55:14.442Z,19
2022-10-28T20:55:36.352Z,19
2022-10-28T21:05:20.120Z,18.8
2022-10-28T21:15:20.239Z,18.6
2022-10-28T21:25:20.572Z,18.2
2022-10-28T21:35:20.951Z,17.8
2022-10-28T21:45:21.009Z,17.4
2022-10-28T21:55:41.322Z,17
2022-10-28T22:05:22.108Z,16.8
2022-10-28T22:15:23.322Z,16.6
2022-10-28T22:25:23.794Z,16.7
2022-10-28T22:35:24.537Z,16.5
2022-10-28T22:45:24.923Z,16.4
2022-10-28T22:55:25.927Z,16.3
2022-10-28T23:05:26.242Z,16.2
2022-10-28T23:15:28.025Z,16.3
2022-10-28T23:25:27.431Z,16.2
2022-10-28T23:35:29.367Z,16.1
2022-10-28T23:45:29.546Z,16
2022-10-28T23:55:30.105Z,15.8
